Time;durP1;ratioP1;P1;durP2;ratioP2;P2;SDS_P1;SDS_P2;PMS_P1;PMS_P2;Temp;Humidity;BMP_temperature;BMP_pressure;BME280_temperature;BME280_humidity;BME280_pressure;Samples;Min_cycle;Max_cycle;Signal;HPM_P1;HPM_P2
2023/11/01 00:00:23;;;;;;;29.47;13.30;;;;;;;15.89;82.12;99682.97;123638;1102;107107;-78
2023/11/01 00:03:15;;;;;;;23.80;12.47;;;;;;;15.89;82.17;99679.45;123726;1102;104242;-78
2023/11/01 00:05:48;;;;;;;28.80;13.93;;;;;;;15.91;81.47;99680.33;123768;1102;104654;-76
2023/11/01 00:08:20;;;;;;;27.82;12.82;;;;;;;15.91;82.46;99685.62;123923;1103;104252;-79
2023/11/01 00:10:51;;;;;;;26.60;13.20;;;;;;;15.92;81.97;99680.33;123609;1102;117802;-79
2023/11/01 00:13:22;;;;;;;26.97;13.63;;;;;;;15.94;81.82;99685.62;123732;1102;104319;-79
2023/11/01 00:15:54;;;;;;;27.63;14.03;;;;;;;15.97;82.37;99690.91;123988;1102;104268;-81
2023/11/01 00:18:25;;;;;;;27.03;13.17;;;;;;;16.02;82.00;99694.47;126053;1101;101842;-77
2023/11/01 00:20:56;;;;;;;28.37;13.17;;;;;;;16.06;81.98;99679.47;126570;1102;101718;-77
2023/11/01 00:23:28;;;;;;;26.37;12.93;;;;;;;16.09;82.72;99666.23;126615;1101;104210;-76
2023/11/01 00:25:59;;;;;;;31.10;13.47;;;;;;;16.12;82.81;99663.59;124964;1102;104400;-77
2023/11/01 00:28:32;;;;;;;28.00;13.07;;;;;;;16.13;82.29;99646.84;123771;1101;104239;-80
2023/11/01 00:31:04;;;;;;;26.63;13.00;;;;;;;16.13;82.80;99654.78;123665;1102;104258;-78
2023/11/01 00:33:35;;;;;;;27.13;13.23;;;;;;;16.12;82.14;99659.17;123690;1102;104375;-78
2023/11/01 00:36:08;;;;;;;27.00;13.35;;;;;;;16.13;82.54;99660.95;123796;1102;104382;-80
2023/11/01 00:38:39;;;;;;;25.23;13.33;;;;;;;16.14;82.79;99656.52;123676;1102;104249;-78
2023/11/01 00:41:10;;;;;;;28.10;13.33;;;;;;;16.14;82.76;99651.23;123743;1102;104364;-80
2023/11/01 00:43:42;;;;;;;26.73;13.77;;;;;;;16.13;82.97;99634.48;123728;1102;104280;-80
2023/11/01 00:46:13;;;;;;;25.40;13.07;;;;;;;16.13;82.33;99642.42;123796;1102;104229;-78
2023/11/01 00:48:45;;;;;;;25.87;12.80;;;;;;;16.13;83.22;99647.71;123443;1102;104252;-78
2023/11/01 00:51:16;;;;;;;24.27;13.70;;;;;;;16.14;82.59;99656.52;123728;1102;104709;-80
2023/11/01 00:53:47;;;;;;;25.50;13.50;;;;;;;16.14;83.46;99657.42;123697;1102;104255;-79
2023/11/01 00:56:18;;;;;;;27.97;13.00;;;;;;;16.16;83.21;99666.23;123659;1102;104277;-79
2023/11/01 00:58:50;;;;;;;29.30;13.33;;;;;;;16.20;83.45;99666.23;123689;1102;104245;-79
2023/11/01 01:01:21;;;;;;;29.10;14.20;;;;;;;16.22;83.18;99664.46;123742;1102;104350;-79
2023/11/01 01:03:53;;;;;;;28.87;14.37;;;;;;;16.23;83.35;99658.30;123693;1102;104354;-81
2023/11/01 01:06:24;;;;;;;29.00;13.40;;;;;;;16.24;83.43;99657.42;123780;1102;104347;-79
2023/11/01 01:08:56;;;;;;;26.75;14.50;;;;;;;16.24;83.64;99660.94;123739;1102;104278;-82
2023/11/01 01:11:27;;;;;;;28.53;13.90;;;;;;;16.24;84.29;99665.36;123896;1102;104162;-81
2023/11/01 01:13:59;;;;;;;26.40;14.13;;;;;;;16.24;84.64;99658.30;123761;1102;104283;-81
2023/11/01 01:16:30;;;;;;;23.77;14.27;;;;;;;16.24;84.49;99657.42;123756;1102;104472;-81
2023/11/01 01:19:01;;;;;;;27.80;13.37;;;;;;;16.23;84.38;99667.11;123702;1102;104220;-78
2023/11/01 01:21:32;;;;;;;26.60;13.63;;;;;;;16.26;84.71;99672.40;123613;1102;104325;-81
2023/11/01 01:24:04;;;;;;;28.80;14.50;;;;;;;16.27;84.47;99668.01;123725;1102;104650;-81
2023/11/01 01:26:36;;;;;;;30.47;14.73;;;;;;;16.29;84.33;99663.58;123710;1102;104242;-79
2023/11/01 01:29:07;;;;;;;29.73;14.90;;;;;;;16.29;83.84;99658.29;123608;1102;104357;-81
2023/11/01 01:31:38;;;;;;;28.63;14.80;;;;;;;16.32;84.45;99659.16;123431;1102;104357;-82
2023/11/01 01:34:09;;;;;;;25.37;14.20;;;;;;;16.34;84.45;99660.03;123745;1102;104347;-80
2023/11/01 01:36:41;;;;;;;26.23;14.40;;;;;;;16.34;84.61;99659.16;123809;1102;104287;-79
2023/11/01 01:39:12;;;;;;;28.20;14.67;;;;;;;16.34;84.19;99665.32;123779;1102;104321;-78
2023/11/01 01:41:43;;;;;;;28.35;15.30;;;;;;;16.35;84.15;99651.21;123565;1102;104201;-84
2023/11/01 01:44:14;;;;;;;30.57;14.83;;;;;;;16.32;84.73;99640.63;123820;1102;104255;-82
2023/11/01 01:46:46;;;;;;;26.80;13.57;;;;;;;16.28;85.19;99644.19;123464;1102;104776;-85
2023/11/01 01:49:17;;;;;;;28.87;14.73;;;;;;;16.26;85.39;99634.47;123821;1102;104269;-81
2023/11/01 01:51:49;;;;;;;29.03;14.50;;;;;;;16.22;85.26;99637.98;123503;1102;104323;-81
2023/11/01 01:54:20;;;;;;;27.67;14.77;;;;;;;16.21;85.22;99646.84;124127;1099;104354;-80
2023/11/01 01:56:52;;;;;;;32.10;15.70;;;;;;;16.18;85.17;99640.64;124266;1099;104245;-82
2023/11/01 01:59:24;;;;;;;28.47;15.23;;;;;;;16.15;84.89;99631.83;123830;1099;104274;-78
2023/11/01 02:01:59;;;;;;;30.47;15.43;;;;;;;16.14;85.50;99641.55;123901;1099;104291;-80
2023/11/01 02:04:31;;;;;;;27.63;14.07;;;;;;;16.14;84.89;99660.08;123787;1099;104209;-81
2023/11/01 02:07:02;;;;;;;28.87;15.50;;;;;;;16.14;85.38;99675.05;123704;1102;104431;-79
2023/11/01 02:09:33;;;;;;;28.20;14.93;;;;;;;16.13;84.75;99679.47;123830;1100;104303;-79
2023/11/01 02:12:05;;;;;;;30.73;14.90;;;;;;;16.14;85.66;99689.19;123786;1099;104296;-79
2023/11/01 02:14:37;;;;;;;30.00;14.20;;;;;;;16.17;85.47;99675.95;123809;1102;104160;-79
2023/11/01 02:17:08;;;;;;;25.10;14.87;;;;;;;16.20;85.44;99677.69;124044;1099;104198;-78
2023/11/01 02:19:39;;;;;;;30.10;15.30;;;;;;;16.23;85.71;99674.17;123852;1099;104326;-80
2023/11/01 02:22:11;;;;;;;27.30;15.23;;;;;;;16.22;85.19;99675.95;123722;1099;104245;-80
2023/11/01 02:24:43;;;;;;;29.33;16.00;;;;;;;16.21;85.58;99676.82;123672;1102;104251;-77
2023/11/01 02:27:14;;;;;;;27.93;14.80;;;;;;;16.22;85.28;99680.34;123699;1102;104236;-77
2023/11/01 02:29:46;;;;;;;27.57;15.57;;;;;;;16.22;85.38;99675.05;123742;1102;104256;-77
2023/11/01 02:32:17;;;;;;;28.95;14.25;;;;;;;16.22;85.50;99667.11;123637;1102;104417;-78
2023/11/01 02:34:48;;;;;;;24.30;14.30;;;;;;;16.23;85.78;99660.94;123985;1098;104238;-78
2023/11/01 02:37:19;;;;;;;27.50;14.90;;;;;;;16.23;85.28;99660.94;124049;1099;104268;-79
2023/11/01 02:39:51;;;;;;;28.33;14.73;;;;;;;16.22;85.27;99654.78;123696;1101;104345;-78
2023/11/01 02:42:22;;;;;;;32.47;15.37;;;;;;;16.18;85.83;99653.88;123870;1099;104421;-79
2023/11/01 02:44:53;;;;;;;29.20;15.00;;;;;;;16.16;85.87;99654.78;124131;1099;104371;-78
2023/11/01 02:47:24;;;;;;;30.10;14.93;;;;;;;16.14;84.95;99667.11;123826;1102;104354;-78
2023/11/01 02:49:56;;;;;;;27.30;13.87;;;;;;;16.13;85.79;99655.66;124113;1099;104242;-79
2023/11/01 02:52:27;;;;;;;28.03;15.13;;;;;;;16.11;84.95;99646.84;124001;1099;104313;-77
2023/11/01 02:55:00;;;;;;;28.23;14.30;;;;;;;16.10;85.55;99655.66;123934;1099;104402;-80
2023/11/01 02:57:35;;;;;;;29.13;15.57;;;;;;;16.08;85.04;99643.29;123950;1102;104332;-78
2023/11/01 03:00:08;;;;;;;31.40;15.30;;;;;;;16.06;85.91;99632.70;124166;1099;104277;-78
2023/11/01 03:02:40;;;;;;;25.88;14.40;;;;;;;16.05;85.24;99646.84;124247;1098;104248;-77
2023/11/01 03:05:11;;;;;;;26.40;14.63;;;;;;;16.04;85.53;99660.95;123836;1102;104332;-78
2023/11/01 03:07:43;;;;;;;26.20;15.07;;;;;;;16.06;85.51;99659.17;123669;1099;104281;-77
2023/11/01 03:10:15;;;;;;;29.97;14.87;;;;;;;16.06;85.41;99653.88;123766;1099;104306;-77
2023/11/01 03:12:46;;;;;;;28.13;15.13;;;;;;;16.05;85.83;99660.08;123781;1102;104839;-76
2023/11/01 03:15:18;;;;;;;27.53;14.97;;;;;;;16.03;85.74;99653.88;123962;1099;104373;-77
2023/11/01 03:17:49;;;;;;;28.40;14.53;;;;;;;16.04;86.10;99660.95;124153;1099;104245;-78
2023/11/01 03:20:20;;;;;;;26.57;14.97;;;;;;;16.05;86.04;99667.11;124079;1099;104243;-79
2023/11/01 03:22:51;;;;;;;27.90;15.10;;;;;;;16.07;85.63;99666.23;123920;1099;104272;-78
2023/11/01 03:25:23;;;;;;;31.10;14.23;;;;;;;16.08;85.74;99657.42;124170;1099;104345;-78
2023/11/01 03:27:54;;;;;;;30.30;15.80;;;;;;;16.10;85.92;99671.53;124160;1099;104245;-79
2023/11/01 03:30:25;;;;;;;30.07;15.50;;;;;;;16.10;86.22;99671.53;124050;1099;104184;-80
2023/11/01 03:32:57;;;;;;;27.20;14.13;;;;;;;16.11;86.26;99665.37;124134;1099;104216;-79
2023/11/01 03:35:28;;;;;;;26.13;13.90;;;;;;;16.12;86.31;99661.81;124184;1099;104421;-79
2023/11/01 03:38:00;;;;;;;39.50;15.93;;;;;;;16.12;85.44;99669.75;123971;1099;104287;-79
2023/11/01 03:40:31;;;;;;;33.53;15.77;;;;;;;16.12;85.52;99679.47;124110;1098;104348;-79
2023/11/01 03:43:14;;;;;;;30.57;15.00;;;;;;;16.10;86.22;99671.53;123869;1099;104328;-80
2023/11/01 03:45:46;;;;;;;28.98;14.93;;;;;;;16.11;85.50;99659.17;124033;1099;104291;-79
2023/11/01 03:48:17;;;;;;;28.77;14.70;;;;;;;16.12;85.52;99650.36;123686;1099;104278;-78
2023/11/01 03:50:48;;;;;;;31.50;15.10;;;;;;;16.12;86.29;99645.94;123951;1099;104268;-79
2023/11/01 03:53:19;;;;;;;29.40;15.10;;;;;;;16.14;85.56;99635.34;123821;1099;104254;-79
2023/11/01 03:55:51;;;;;;;29.33;15.10;;;;;;;16.14;86.29;99619.47;123926;1099;104335;-79
2023/11/01 03:58:22;;;;;;;26.90;14.27;;;;;;;16.14;85.97;99615.08;124103;1099;104197;-79
2023/11/01 04:00:56;;;;;;;29.45;14.70;;;;;;;16.13;86.34;99626.54;123963;1099;104348;-79
2023/11/01 04:03:26;;;;;;;;;;;;;;;16.09;85.25;99643.29;123993;1099;104660;-78
2023/11/01 04:05:57;;;;;;;24.60;14.63;;;;;;;16.08;85.65;99657.42;124069;1098;104271;-78
2023/11/01 04:08:28;;;;;;;26.83;14.83;;;;;;;16.08;86.17;99683.89;123827;1099;104360;-78
2023/11/01 04:11:00;;;;;;;25.43;14.20;;;;;;;16.08;85.74;99688.28;123897;1099;104431;-77
2023/11/01 04:13:32;;;;;;;24.30;14.23;;;;;;;16.09;86.52;99682.98;123807;1099;104380;-79
2023/11/01 04:16:03;;;;;;;26.77;15.30;;;;;;;16.10;85.84;99683.89;123857;1102;104277;-79
2023/11/01 04:18:35;;;;;;;25.30;14.13;;;;;;;16.10;86.27;99676.82;123939;1099;104277;-78
2023/11/01 04:21:07;;;;;;;26.00;15.67;;;;;;;16.08;85.41;99672.40;123946;1099;104736;-78
2023/11/01 04:23:38;;;;;;;32.70;15.53;;;;;;;16.05;85.36;99649.48;123723;1099;105638;-78
2023/11/01 04:26:10;;;;;;;27.77;15.00;;;;;;;16.03;85.44;99645.07;123738;1099;104245;-79
2023/11/01 04:28:41;;;;;;;27.45;16.30;;;;;;;16.00;85.87;99645.94;123828;1097;104322;-78
2023/11/01 04:31:13;;;;;;;28.93;16.07;;;;;;;15.98;86.07;99653.00;123796;1099;104842;-77
2023/11/01 04:33:44;;;;;;;30.57;16.80;;;;;;;15.92;86.46;99664.45;123654;1099;104294;-76
2023/11/01 04:36:15;;;;;;;33.90;18.30;;;;;;;15.86;86.07;99661.80;123731;1099;104303;-77
2023/11/01 04:38:47;;;;;;;31.60;17.07;;;;;;;15.81;85.96;99660.93;124052;1099;104553;-76
2023/11/01 04:41:19;;;;;;;29.80;18.37;;;;;;;15.78;86.65;99674.15;123697;1102;104275;-77
2023/11/01 04:43:50;;;;;;;33.33;18.17;;;;;;;15.77;86.13;99675.92;123543;1099;104357;-76
2023/11/01 04:46:21;;;;;;;29.97;17.93;;;;;;;15.74;86.52;99686.47;123619;1099;104249;-77
2023/11/01 04:48:52;;;;;;;29.63;17.50;;;;;;;15.74;86.38;99704.11;123709;1099;104245;-76
2023/11/01 04:51:24;;;;;;;32.33;17.93;;;;;;;15.71;86.33;99715.55;123669;1099;104418;-77
2023/11/01 04:53:55;;;;;;;29.50;18.27;;;;;;;15.73;86.95;99721.72;123807;1098;104268;-75
2023/11/01 04:56:27;;;;;;;30.07;18.73;;;;;;;15.75;86.20;99721.72;123704;1099;109517;-75
2023/11/01 04:58:58;;;;;;;32.23;18.27;;;;;;;15.76;86.86;99739.37;123991;1099;104267;-76
2023/11/01 05:01:32;;;;;;;31.83;17.73;;;;;;;15.77;87.11;99763.21;124127;1099;104332;-76
2023/11/01 05:04:04;;;;;;;34.03;19.17;;;;;;;15.78;87.17;99775.57;123556;1102;104294;-75
2023/11/01 05:06:35;;;;;;;31.77;19.20;;;;;;;15.80;86.95;99779.09;123763;1099;105377;-75
2023/11/01 05:09:07;;;;;;;39.17;21.33;;;;;;;15.81;87.26;99796.70;123623;1099;104367;-75
2023/11/01 05:11:38;;;;;;;34.80;19.95;;;;;;;15.83;86.64;99793.20;123619;1099;104230;-75
2023/11/01 05:14:09;;;;;;;36.00;20.97;;;;;;;15.83;87.49;99796.71;123915;1099;104346;-76
2023/11/01 05:16:41;;;;;;;35.87;20.07;;;;;;;15.85;87.50;99800.27;123811;1099;104485;-75
2023/11/01 05:19:12;;;;;;;36.17;20.67;;;;;;;15.86;87.34;99798.49;123781;1099;104364;-75
2023/11/01 05:21:43;;;;;;;32.77;19.17;;;;;;;15.84;87.91;99782.62;123637;1099;104699;-76
2023/11/01 05:24:15;;;;;;;31.73;18.63;;;;;;;15.80;88.06;99768.52;124144;1099;104670;-76
2023/11/01 05:26:46;;;;;;;32.23;19.23;;;;;;;15.78;87.50;99761.44;123385;1100;104248;-75
2023/11/01 05:29:17;;;;;;;34.70;19.63;;;;;;;15.71;88.01;99755.22;123706;1099;104328;-74
2023/11/01 05:31:49;;;;;;;30.37;18.90;;;;;;;15.63;88.15;99749.91;124114;1098;104194;-76
2023/11/01 05:34:20;;;;;;;37.23;20.70;;;;;;;15.59;88.30;99747.25;124016;1099;104769;-74
2023/11/01 05:36:51;;;;;;;29.10;18.23;;;;;;;15.57;87.48;99749.89;123928;1099;104229;-74
2023/11/01 05:39:23;;;;;;;31.67;18.10;;;;;;;15.56;88.52;99750.76;123771;1099;104275;-75
2023/11/01 05:41:54;;;;;;;32.40;17.40;;;;;;;15.53;88.30;99748.10;124045;1099;104238;-74
2023/11/01 05:44:25;;;;;;;33.27;18.70;;;;;;;15.53;87.76;99741.94;124046;1099;104270;-74
2023/11/01 05:46:57;;;;;;;29.73;17.50;;;;;;;15.50;88.71;99739.28;124059;1099;104174;-75
2023/11/01 05:49:29;;;;;;;31.60;17.70;;;;;;;15.48;88.06;99743.70;123804;1099;104347;-75
2023/11/01 05:52:00;;;;;;;33.40;18.45;;;;;;;15.49;88.74;99758.66;124164;1099;104264;-74
2023/11/01 05:54:31;;;;;;;34.43;18.03;;;;;;;15.49;88.13;99771.87;124012;1099;104328;-75
2023/11/01 05:57:03;;;;;;;29.93;17.80;;;;;;;15.46;88.25;99772.77;124117;1099;104206;-76
2023/11/01 05:59:34;;;;;;;34.10;18.75;;;;;;;15.44;89.17;99779.80;124403;1099;104709;-75
2023/11/01 06:02:06;;;;;;;32.90;18.43;;;;;;;15.42;88.40;99798.29;124326;1099;104189;-75
2023/11/01 06:04:40;;;;;;;32.00;19.03;;;;;;;15.45;89.31;99785.09;124133;1099;104191;-74
2023/11/01 06:07:11;;;;;;;32.67;18.67;;;;;;;15.44;89.17;99763.92;124431;1099;104410;-76
2023/11/01 06:09:42;;;;;;;35.17;17.63;;;;;;;15.39;89.43;99779.77;124030;1099;104274;-75
2023/11/01 06:12:15;;;;;;;29.43;18.70;;;;;;;15.38;88.64;99782.41;124053;1099;104249;-76
2023/11/01 06:14:47;;;;;;;33.75;18.15;;;;;;;15.38;89.72;99774.47;124690;1099;103037;-76
2023/11/01 06:17:20;;;;;;;35.40;18.77;;;;;;;15.36;89.47;99770.95;125380;1099;102364;-75
2023/11/01 06:19:54;;;;;;;31.93;17.97;;;;;;;15.33;89.86;99771.81;125521;1098;104283;-74
2023/11/01 06:22:25;;;;;;;36.17;18.70;;;;;;;15.30;89.13;99776.20;124995;1099;104316;-74
2023/11/01 06:24:57;;;;;;;33.80;18.23;;;;;;;15.24;89.74;99774.44;124515;1099;104300;-72
2023/11/01 06:27:31;;;;;;;28.10;17.43;;;;;;;15.18;90.01;99777.92;124177;1099;104199;-74
2023/11/01 06:30:04;;;;;;;31.80;17.70;;;;;;;15.15;89.44;99769.11;124324;1099;104265;-76
2023/11/01 06:32:36;;;;;;;30.97;18.57;;;;;;;15.15;89.48;99758.53;124460;1099;104277;-75
2023/11/01 06:35:09;;;;;;;28.13;17.07;;;;;;;15.14;90.50;99757.63;124347;1099;104169;-75
2023/11/01 06:37:41;;;;;;;34.23;17.63;;;;;;;15.13;89.60;99771.73;124481;1099;104273;-75
2023/11/01 06:40:14;;;;;;;31.67;18.70;;;;;;;15.10;90.00;99790.22;124637;1099;104274;-76
2023/11/01 06:42:45;;;;;;;30.95;18.10;;;;;;;15.06;90.15;99784.01;125015;1099;104156;-76
2023/11/01 06:45:17;;;;;;;30.87;17.90;;;;;;;15.04;90.19;99783.12;124293;1099;104355;-74
2023/11/01 06:47:49;;;;;;;32.03;17.07;;;;;;;15.04;89.71;99793.69;124359;1099;104230;-73
2023/11/01 06:50:20;;;;;;;31.30;17.00;;;;;;;15.02;90.97;99802.47;124006;1099;104245;-74
2023/11/01 06:52:51;;;;;;;32.07;16.20;;;;;;;14.94;89.90;99809.47;124372;1099;104274;-75
2023/11/01 06:55:23;;;;;;;29.23;14.67;;;;;;;14.90;89.91;99820.02;124258;1099;104259;-73
2023/11/01 06:57:54;;;;;;;27.67;16.13;;;;;;;14.88;89.87;99823.50;124307;1099;104376;-72
2023/11/01 07:00:25;;;;;;;31.90;17.33;;;;;;;14.87;90.96;99829.69;124495;1099;104240;-74
2023/11/01 07:02:57;;;;;;;28.10;16.60;;;;;;;14.89;91.13;99839.37;124635;1099;104269;-75
2023/11/01 07:05:28;;;;;;;31.50;17.07;;;;;;;14.91;90.74;99855.23;124882;1099;104318;-77
2023/11/01 07:08:00;;;;;;;29.70;17.13;;;;;;;14.92;90.25;99872.86;124401;1099;104329;-74
2023/11/01 07:10:31;;;;;;;27.13;16.07;;;;;;;14.95;90.81;99878.16;124477;1099;104192;-73
2023/11/01 07:13:03;;;;;;;28.57;13.57;;;;;;;14.90;90.48;99888.70;124213;1099;104270;-74
2023/11/01 07:15:34;;;;;;;26.57;12.83;;;;;;;14.83;91.23;99878.94;124499;1099;104293;-74
2023/11/01 07:18:07;;;;;;;26.37;13.10;;;;;;;14.79;91.32;99878.90;124446;1099;104111;-74
2023/11/01 07:20:43;;;;;;;22.63;12.10;;;;;;;14.74;91.12;99886.81;124847;1099;104233;-76
2023/11/01 07:23:14;;;;;;;41.43;14.40;;;;;;;14.69;91.31;99891.14;124692;1099;104165;-75
2023/11/01 07:25:46;;;;;;;28.13;12.90;;;;;;;14.66;91.50;99877.91;124282;1099;104194;-73
2023/11/01 07:28:17;;;;;;;27.87;13.90;;;;;;;14.69;90.97;99862.09;124437;1099;104271;-75
2023/11/01 07:30:49;;;;;;;27.60;12.37;;;;;;;14.73;91.64;99867.42;124777;1099;104225;-75
2023/11/01 07:33:20;;;;;;;22.33;11.27;;;;;;;14.73;90.64;99882.39;124438;1102;104250;-73
2023/11/01 07:35:52;;;;;;;24.93;11.33;;;;;;;14.72;91.69;99878.87;124450;1098;102740;-75
2023/11/01 07:38:26;;;;;;;26.73;11.33;;;;;;;14.69;91.63;99883.22;124346;1099;104165;-75
2023/11/01 07:40:57;;;;;;;25.90;11.23;;;;;;;14.66;91.22;99878.82;124901;1099;102588;-75
2023/11/01 07:43:29;;;;;;;26.60;11.57;;;;;;;14.63;91.20;99884.07;124363;1099;104183;-74
2023/11/01 07:46:00;;;;;;;24.63;10.70;;;;;;;14.60;91.13;99891.97;124797;1099;104223;-76
2023/11/01 07:48:35;;;;;;;28.20;11.07;;;;;;;14.54;91.71;99894.51;124365;1099;104264;-74
2023/11/01 07:51:08;;;;;;;23.40;10.90;;;;;;;14.54;91.08;99890.10;124353;1099;104236;-73
2023/11/01 07:53:41;;;;;;;24.18;11.33;;;;;;;14.55;91.70;99891.89;125563;1098;102092;-74
2023/11/01 07:56:18;;;;;;;;;;;;;;;14.53;91.66;99890.96;124424;1099;104252;-76
2023/11/01 07:58:50;;;;;;;22.37;9.23;;;;;;;14.52;91.89;99893.59;124473;1099;104242;-73
2023/11/01 08:01:24;;;;;;;19.03;9.93;;;;;;;14.51;91.33;99889.20;124693;1099;104403;-76
2023/11/01 08:03:56;;;;;;;17.77;8.80;;;;;;;14.50;91.15;99879.50;124972;1099;104339;-74
2023/11/01 08:06:28;;;;;;;19.90;9.47;;;;;;;14.46;91.61;99878.59;124922;1098;104207;-75
2023/11/01 08:09:01;;;;;;;;;;;;;;;14.43;90.87;99864.45;124705;1099;104217;-75
2023/11/01 08:11:36;;;;;;;20.63;9.93;;;;;;;14.46;91.79;99853.93;124571;1099;104238;-76
2023/11/01 08:14:08;;;;;;;21.77;9.63;;;;;;;14.51;91.63;99857.52;124229;1099;102042;-75
2023/11/01 08:16:41;;;;;;;21.23;9.33;;;;;;;14.52;91.72;99857.53;124384;1099;104274;-74
2023/11/01 08:19:14;;;;;;;21.30;10.10;;;;;;;14.57;92.83;99852.30;124169;1099;104252;-76
2023/11/01 08:21:45;;;;;;;23.33;12.27;;;;;;;14.63;92.36;99852.39;124340;1099;104252;-75
2023/11/01 08:24:19;;;;;;;21.63;12.90;;;;;;;14.64;92.38;99859.41;124722;1099;104354;-75
2023/11/01 08:26:54;;;;;;;25.43;12.90;;;;;;;14.66;93.21;99857.70;124572;1099;104162;-77
2023/11/01 08:29:25;;;;;;;25.90;12.30;;;;;;;14.71;93.25;99870.94;124463;1099;104239;-76
2023/11/01 08:31:57;;;;;;;22.00;10.87;;;;;;;14.73;93.52;99858.63;124278;1102;103638;-76
2023/11/01 08:34:28;;;;;;;21.87;10.87;;;;;;;14.72;93.37;99862.13;124305;1099;103875;-75
2023/11/01 08:37:00;;;;;;;19.30;9.83;;;;;;;14.72;92.88;99865.67;124515;1098;104599;-76
2023/11/01 08:39:31;;;;;;;20.17;10.53;;;;;;;14.76;93.78;99870.95;124146;1099;104169;-73
2023/11/01 08:42:03;;;;;;;21.45;10.25;;;;;;;14.74;93.83;99868.33;124623;1099;104245;-74
2023/11/01 08:44:35;;;;;;;20.07;9.50;;;;;;;14.70;93.22;99867.39;124298;1099;104332;-76
2023/11/01 08:47:08;;;;;;;24.67;9.97;;;;;;;14.71;94.11;99855.09;124707;1098;104156;-74
2023/11/01 08:49:39;;;;;;;22.95;10.35;;;;;;;14.75;94.39;99838.38;124498;1099;104214;-74
2023/11/01 08:52:12;;;;;;;22.13;11.57;;;;;;;14.76;94.40;99842.80;124182;1099;104402;-74
2023/11/01 08:54:43;;;;;;;21.30;9.77;;;;;;;14.77;94.55;99863.04;124399;1099;104294;-73
2023/11/01 08:57:16;;;;;;;16.87;7.63;;;;;;;14.77;93.89;99867.45;124074;1099;104284;-73
2023/11/01 08:59:47;;;;;;;16.13;7.40;;;;;;;14.78;93.85;99856.02;124280;1099;104245;-73
2023/11/01 09:02:19;;;;;;;13.90;6.97;;;;;;;14.81;93.77;99856.05;124237;1099;104332;-74
2023/11/01 09:04:51;;;;;;;17.80;7.50;;;;;;;14.85;93.98;99847.25;124294;1098;104347;-75
2023/11/01 09:07:24;;;;;;;15.17;7.27;;;;;;;15.01;95.07;99865.01;124289;1102;104559;-73
2023/11/01 09:09:59;;;;;;;15.65;6.97;;;;;;;15.19;95.52;99895.07;124554;1099;103356;-74
2023/11/01 09:12:30;;;;;;;18.87;7.37;;;;;;;15.28;94.73;99922.45;124400;1099;104271;-75
2023/11/01 09:15:04;;;;;;;17.53;7.83;;;;;;;15.32;94.58;99922.47;124518;1099;104175;-74
2023/11/01 09:17:51;;;;;;;17.75;8.68;;;;;;;15.44;95.43;99917.27;124252;1099;104179;-75
2023/11/01 09:20:23;;;;;;;19.30;9.33;;;;;;;15.56;95.48;99914.70;124642;1099;104190;-76
2023/11/01 09:22:57;;;;;;;17.10;7.90;;;;;;;15.61;95.80;99910.34;124330;1099;104300;-74
2023/11/01 09:25:29;;;;;;;16.40;8.07;;;;;;;15.66;95.66;99914.76;124407;1099;104274;-78
2023/11/01 09:28:03;;;;;;;16.00;7.40;;;;;;;15.71;95.77;99915.69;124736;1099;104277;-78
2023/11/01 09:30:40;;;;;;;14.80;7.33;;;;;;;15.79;96.09;99906.93;124792;1099;103290;-78
2023/11/01 09:33:27;;;;;;;15.13;6.90;;;;;;;15.86;96.13;99897.25;124560;1102;104473;-78
2023/11/01 09:36:05;;;;;;;13.50;7.37;;;;;;;15.96;95.53;99899.08;124986;1099;104216;-76
2023/11/01 09:38:39;;;;;;;11.33;6.30;;;;;;;16.08;95.74;99895.60;124778;1099;102317;-77
2023/11/01 09:41:24;;;;;;;12.83;6.20;;;;;;;16.21;96.01;99896.52;124814;1102;104268;-77
2023/11/01 09:43:57;;;;;;;12.03;6.00;;;;;;;16.38;95.41;99895.66;124160;1099;104322;-76
2023/11/01 09:46:30;;;;;;;14.58;6.45;;;;;;;16.42;95.82;99895.67;124423;1099;104268;-77
2023/11/01 09:49:01;;;;;;;13.93;6.73;;;;;;;16.61;95.90;99901.00;124262;1102;104287;-76
2023/11/01 09:51:34;;;;;;;13.73;6.20;;;;;;;16.78;95.75;99907.23;124700;1099;104220;-73
2023/11/01 09:54:11;;;;;;;16.20;6.70;;;;;;;17.03;96.38;99886.95;124360;1099;104255;-76
2023/11/01 09:56:44;;;;;;;13.47;6.13;;;;;;;17.12;96.27;99882.52;124964;1099;103244;-75
2023/11/01 09:59:16;;;;;;;14.47;6.25;;;;;;;17.06;95.84;99883.39;124766;1099;104131;-76
2023/11/01 10:01:49;;;;;;;13.27;6.67;;;;;;;16.95;95.66;99893.99;124423;1098;104255;-77
2023/11/01 10:04:24;;;;;;;11.30;5.90;;;;;;;17.06;95.80;99892.25;124525;1099;104219;-74
2023/11/01 10:06:56;;;;;;;11.23;6.23;;;;;;;17.04;95.93;99888.69;124614;1098;104278;-75
2023/11/01 10:09:29;;;;;;;14.10;5.53;;;;;;;17.03;96.16;99878.09;124333;1099;104251;-73
2023/11/01 10:12:01;;;;;;;14.50;5.58;;;;;;;16.97;95.72;99870.14;126018;1099;102007;-73
2023/11/01 10:14:33;;;;;;;10.23;5.27;;;;;;;16.93;96.02;99865.75;124217;1099;104421;-74
2023/11/01 10:17:07;;;;;;;10.67;5.67;;;;;;;16.86;95.96;99863.10;124584;1099;104204;-76
2023/11/01 10:19:41;;;;;;;8.85;4.85;;;;;;;16.84;96.28;99867.49;124275;1099;104251;-73
2023/11/01 10:22:34;;;;;;;11.53;5.37;;;;;;;16.81;96.04;99855.98;124349;1099;104208;-75
2023/11/01 10:25:16;;;;;;;10.53;5.17;;;;;;;16.77;95.85;99847.17;124699;1099;104667;-73
2023/11/01 10:27:56;;;;;;;11.37;4.97;;;;;;;16.87;96.12;99866.63;124480;1099;102804;-73
2023/11/01 10:30:29;;;;;;;10.87;5.47;;;;;;;16.85;95.94;99863.06;124727;1099;104240;-74
2023/11/01 10:33:01;;;;;;;10.05;5.10;;;;;;;16.89;96.07;99852.50;124394;1099;105003;-75
2023/11/01 10:35:35;;;;;;;9.63;5.00;;;;;;;16.94;96.01;99841.00;124326;1099;102000;-75
2023/11/01 10:38:07;;;;;;;11.57;5.33;;;;;;;17.00;95.73;99838.34;124708;1099;104156;-76
2023/11/01 10:40:39;;;;;;;9.13;5.20;;;;;;;17.14;95.90;99844.53;124289;1099;104232;-74
2023/11/01 10:43:12;;;;;;;12.07;5.93;;;;;;;17.33;96.14;99837.41;124460;1099;104236;-74
2023/11/01 10:45:43;;;;;;;10.20;5.00;;;;;;;17.49;95.92;99832.94;124165;1102;104357;-74
2023/11/01 10:48:15;;;;;;;9.25;5.55;;;;;;;17.58;95.80;99824.95;124685;1099;104204;-77
2023/11/01 10:50:50;;;;;;;12.00;5.67;;;;;;;17.63;95.64;99827.59;124803;1099;102469;-76
2023/11/01 10:53:23;;;;;;;11.23;5.23;;;;;;;17.67;95.79;99828.45;124434;1099;103279;-78
2023/11/01 10:55:56;;;;;;;7.50;4.70;;;;;;;17.67;95.24;99828.45;124585;1100;104316;-76
2023/11/01 10:58:33;;;;;;;6.23;3.87;;;;;;;17.64;95.03;99834.67;124489;1100;103824;-76
2023/11/01 11:01:11;;;;;;;7.83;4.43;;;;;;;17.61;95.13;99824.07;125006;1099;104319;-76
2023/11/01 11:03:51;;;;;;;9.57;4.47;;;;;;;17.48;94.51;99828.52;124892;1099;104318;-74
2023/11/01 11:06:35;;;;;;;8.23;4.03;;;;;;;17.34;94.64;99828.58;124801;1099;103395;-74
2023/11/01 11:09:27;;;;;;;6.95;3.60;;;;;;;17.32;95.01;99842.72;124938;1099;102894;-75
2023/11/01 11:12:24;;;;;;;8.83;3.97;;;;;;;17.32;95.06;99855.98;124969;1099;104386;-75
2023/11/01 11:14:59;;;;;;;7.53;4.30;;;;;;;17.38;95.05;99853.31;124277;1099;104390;-76
2023/11/01 11:17:30;;;;;;;8.43;4.57;;;;;;;17.48;95.21;99844.42;124798;1099;104227;-76
2023/11/01 11:20:16;;;;;;;8.75;4.35;;;;;;;17.54;95.73;99838.23;124535;1099;103382;-76
2023/11/01 11:23:17;;;;;;;6.93;3.67;;;;;;;17.55;95.10;99840.87;116067;1099;10001407;-75
2023/11/01 11:25:53;;;;;;;7.50;3.70;;;;;;;17.48;95.21;99836.47;124603;1102;104237;-76
2023/11/01 11:28:49;;;;;;;8.27;4.13;;;;;;;17.42;94.83;99844.44;124573;1099;103346;-74